• Join FlightAware (Why Join?)
  • Login
  • US Flag 
09:59PM EDT


 

Airport Tracker/Info


-or-


 

Live Flight TrackerFlight Track Log ✈ AAR8733 ✈ 10-Jul-2013 ✈ RKSS / GMP - RKJY / RSU

Flight Track Log - Related Links

Times and Time Zones

All times are in EDT time to prevent confusion due to time zone crossing. See the AAR8733 flight status page for this flight to view local times or setup timezone preferences in your user account.

Time Position Orientation Groundspeed Altitude Reporting Facility
EDT Latitude Longitude Course Direction KTS MPH feet Rate Location/Type
09:05PM 37.4970 126.8550 153° Southeast 195 224 3,800  Level FlightAware
09:05PM 37.4820 126.8630 157° South 217 250 4,100 1,200 Climbing FlightAware
09:05PM 37.4620 126.8750 155° Southeast 247 284 4,600 2,040 Climbing FlightAware
09:06PM 37.4210 126.8930 161° South 271 312 6,000 2,700 Climbing FlightAware
09:06PM 37.3840 126.8960 176° South 272 313 7,300 2,640 Climbing FlightAware
09:07PM 37.3520 126.8980 177° South 271 312 8,500 2,760 Climbing FlightAware
09:07PM 37.3190 126.8990 179° South 274 315 9,600 1,560 Climbing FlightAware
09:08PM 37.2690 126.9020 177° South 287 330 10,200 420 Climbing FlightAware
09:08PM 37.2260 126.9050 177° South 287 330 10,200  Level FlightAware
09:09PM 37.1860 126.9070 178° South 287 330 10,200  Level FlightAware
09:10PM 37.1430 126.9100 177° South 287 330 10,200 1,320 Level FlightAware
09:12PM 37.0033 126.9540 166° South  Level Estimated
09:12PM 36.9110 126.9100 166° South 282 325 13,700  Level FlightAware
09:12PM 36.8560 126.9140 177° South 282 325 13,700  Level FlightAware
09:13PM 36.8140 126.9160 178° South 282 325 13,700  Level FlightAware
09:16PM 36.6369 126.9802 164° South  Level Estimated
09:17PM 36.5641 127.0066 164° South  Level Estimated
09:18PM 36.4913 127.0328 164° South  Level Estimated
09:19PM 36.4184 127.0591 164° South  Level Estimated
09:20PM 36.3456 127.0852 164° South  Level Estimated
09:21PM 36.2728 127.1114 164° South  Level Estimated
09:22PM 36.2000 127.1374 164° South  Level Estimated
09:23PM 36.1271 127.1634 164° South  Level Estimated
09:24PM 36.0543 127.1894 164° South  Level Estimated
09:25PM 35.9814 127.2153 164° South  Level Estimated
09:26PM 35.9086 127.2412 164° South  Level Estimated
09:27PM 35.8357 127.2671 164° South  Level Estimated
09:28PM 35.7629 127.2928 164° South  Level Estimated
09:29PM 35.6900 127.3186 164° South  Level Estimated
09:30PM 35.6171 127.3443 164° South  Level Estimated
09:31PM 35.5443 127.3699 164° South  Level Estimated
09:32PM 35.4714 127.3955 164° South  Level Estimated
09:33PM 35.3985 127.4211 164° South  Level Estimated
09:34PM 35.3256 127.4466 164° South  Level Estimated
09:35PM 35.2527 127.4720 164° South  Level Estimated
09:36PM 35.1798 127.4974 164° South  Level Estimated
09:37PM 35.1069 127.5228 164° South  Level Estimated
09:38PM 35.0339 127.5481 164° South  Level Estimated
09:39PM 34.9610 127.5734 164° South  Level Estimated
09:40PM 34.8881 127.5986 164° South  Level Estimated
09:41PM 34.8398 127.6153 164° South  Level Estimated
09:42PM 34.8398 127.6153 180° South  Level Estimated
09:43PM 34.8398 127.6153 180° South  Level Estimated
09:44PM 34.8398 127.6153 180° South  Level Estimated
09:45PM 34.8398 127.6153 180° South  Level Estimated
09:46PM 34.8398 127.6153 180° South  Level Estimated
09:47PM 34.8398 127.6153 180° South  Level Estimated
09:48PM 34.8398 127.6153 180° South  Level Estimated
09:49PM 34.8398 127.6153 180° South  Level Estimated